sensor_id;sensor_type;location;lat;lon;timestamp;P1;durP1;ratioP1;P2;durP2;ratioP2
45792;SDS011;31495;42.740;22.908;2024-02-14T00:00:10;6.40;;;4.10;;
45792;SDS011;31495;42.740;22.908;2024-02-14T00:01:12;8.48;;;4.22;;
45792;SDS011;31495;42.740;22.908;2024-02-14T00:02:12;8.07;;;4.60;;
45792;SDS011;31495;42.740;22.908;2024-02-14T00:03:12;8.02;;;4.50;;
45792;SDS011;31495;42.740;22.908;2024-02-14T00:04:11;8.07;;;4.20;;
45792;SDS011;31495;42.740;22.908;2024-02-14T00:06:12;8.10;;;4.38;;
45792;SDS011;31495;42.740;22.908;2024-02-14T00:07:12;8.00;;;4.22;;
45792;SDS011;31495;42.740;22.908;2024-02-14T00:08:12;7.80;;;5.00;;
45792;SDS011;31495;42.740;22.908;2024-02-14T00:09:13;7.90;;;4.75;;
45792;SDS011;31495;42.740;22.908;2024-02-14T00:10:13;9.57;;;4.53;;
45792;SDS011;31495;42.740;22.908;2024-02-14T00:11:12;7.72;;;4.95;;
45792;SDS011;31495;42.740;22.908;2024-02-14T00:12:13;6.65;;;4.80;;
45792;SDS011;31495;42.740;22.908;2024-02-14T00:13:13;7.72;;;4.80;;
45792;SDS011;31495;42.740;22.908;2024-02-14T00:14:13;7.40;;;4.63;;
45792;SDS011;31495;42.740;22.908;2024-02-14T00:15:12;5.82;;;4.20;;
45792;SDS011;31495;42.740;22.908;2024-02-14T00:16:12;9.18;;;4.93;;
45792;SDS011;31495;42.740;22.908;2024-02-14T00:17:11;8.23;;;5.03;;
45792;SDS011;31495;42.740;22.908;2024-02-14T00:18:12;7.05;;;4.18;;
45792;SDS011;31495;42.740;22.908;2024-02-14T00:19:11;8.43;;;4.97;;
45792;SDS011;31495;42.740;22.908;2024-02-14T00:20:11;8.27;;;4.18;;
45792;SDS011;31495;42.740;22.908;2024-02-14T00:21:11;7.93;;;4.78;;
45792;SDS011;31495;42.740;22.908;2024-02-14T00:22:10;8.23;;;4.90;;
45792;SDS011;31495;42.740;22.908;2024-02-14T00:23:10;12.30;;;6.22;;
45792;SDS011;31495;42.740;22.908;2024-02-14T00:24:11;17.42;;;9.48;;
45792;SDS011;31495;42.740;22.908;2024-02-14T00:25:11;11.30;;;5.75;;
45792;SDS011;31495;42.740;22.908;2024-02-14T00:26:10;10.20;;;5.68;;
45792;SDS011;31495;42.740;22.908;2024-02-14T00:27:09;6.47;;;4.03;;
45792;SDS011;31495;42.740;22.908;2024-02-14T00:28:09;10.82;;;6.05;;
45792;SDS011;31495;42.740;22.908;2024-02-14T00:29:08;8.52;;;4.97;;
45792;SDS011;31495;42.740;22.908;2024-02-14T00:30:08;9.15;;;5.55;;
45792;SDS011;31495;42.740;22.908;2024-02-14T00:31:09;10.00;;;5.43;;
45792;SDS011;31495;42.740;22.908;2024-02-14T00:32:08;9.32;;;5.38;;
45792;SDS011;31495;42.740;22.908;2024-02-14T00:33:08;9.52;;;5.30;;
45792;SDS011;31495;42.740;22.908;2024-02-14T00:34:07;8.38;;;4.95;;
45792;SDS011;31495;42.740;22.908;2024-02-14T00:35:07;10.88;;;5.10;;
45792;SDS011;31495;42.740;22.908;2024-02-14T00:36:07;8.90;;;4.88;;
45792;SDS011;31495;42.740;22.908;2024-02-14T00:37:06;11.60;;;5.63;;
45792;SDS011;31495;42.740;22.908;2024-02-14T00:38:07;8.68;;;5.32;;
45792;SDS011;31495;42.740;22.908;2024-02-14T00:39:07;9.98;;;6.10;;
45792;SDS011;31495;42.740;22.908;2024-02-14T00:40:08;8.88;;;5.65;;
45792;SDS011;31495;42.740;22.908;2024-02-14T00:41:10;9.90;;;5.38;;
45792;SDS011;31495;42.740;22.908;2024-02-14T00:42:10;11.20;;;6.10;;
45792;SDS011;31495;42.740;22.908;2024-02-14T00:43:10;8.13;;;5.00;;
45792;SDS011;31495;42.740;22.908;2024-02-14T00:44:09;7.57;;;4.75;;
45792;SDS011;31495;42.740;22.908;2024-02-14T00:45:08;10.60;;;5.60;;
45792;SDS011;31495;42.740;22.908;2024-02-14T00:46:08;9.02;;;5.28;;
45792;SDS011;31495;42.740;22.908;2024-02-14T00:47:08;9.55;;;5.38;;
45792;SDS011;31495;42.740;22.908;2024-02-14T00:48:07;11.50;;;6.18;;
45792;SDS011;31495;42.740;22.908;2024-02-14T00:49:07;12.15;;;5.95;;
45792;SDS011;31495;42.740;22.908;2024-02-14T00:50:06;9.38;;;5.40;;
45792;SDS011;31495;42.740;22.908;2024-02-14T00:51:07;9.70;;;5.22;;
45792;SDS011;31495;42.740;22.908;2024-02-14T00:52:06;8.77;;;5.28;;
45792;SDS011;31495;42.740;22.908;2024-02-14T00:53:06;7.68;;;5.28;;
45792;SDS011;31495;42.740;22.908;2024-02-14T00:54:06;8.25;;;5.03;;
45792;SDS011;31495;42.740;22.908;2024-02-14T00:55:06;8.73;;;5.15;;
45792;SDS011;31495;42.740;22.908;2024-02-14T00:56:06;11.05;;;5.63;;
45792;SDS011;31495;42.740;22.908;2024-02-14T00:57:06;7.43;;;5.43;;
45792;SDS011;31495;42.740;22.908;2024-02-14T00:58:06;12.15;;;5.05;;
45792;SDS011;31495;42.740;22.908;2024-02-14T00:59:05;10.82;;;5.78;;
45792;SDS011;31495;42.740;22.908;2024-02-14T01:00:06;9.85;;;5.70;;
45792;SDS011;31495;42.740;22.908;2024-02-14T01:01:06;11.02;;;5.60;;
45792;SDS011;31495;42.740;22.908;2024-02-14T01:02:06;7.88;;;5.65;;
45792;SDS011;31495;42.740;22.908;2024-02-14T01:03:06;8.82;;;5.53;;
45792;SDS011;31495;42.740;22.908;2024-02-14T01:04:06;11.27;;;5.10;;
45792;SDS011;31495;42.740;22.908;2024-02-14T01:05:06;7.85;;;5.20;;
45792;SDS011;31495;42.740;22.908;2024-02-14T01:06:06;10.00;;;5.55;;
45792;SDS011;31495;42.740;22.908;2024-02-14T01:07:05;10.63;;;5.65;;
45792;SDS011;31495;42.740;22.908;2024-02-14T01:08:05;7.72;;;5.03;;
45792;SDS011;31495;42.740;22.908;2024-02-14T01:09:05;8.65;;;5.30;;
45792;SDS011;31495;42.740;22.908;2024-02-14T01:10:06;8.82;;;4.40;;
45792;SDS011;31495;42.740;22.908;2024-02-14T01:11:07;8.15;;;4.55;;
45792;SDS011;31495;42.740;22.908;2024-02-14T01:12:07;7.82;;;4.70;;
45792;SDS011;31495;42.740;22.908;2024-02-14T01:13:07;10.20;;;4.45;;
45792;SDS011;31495;42.740;22.908;2024-02-14T01:14:06;8.18;;;5.45;;
45792;SDS011;31495;42.740;22.908;2024-02-14T01:15:06;7.45;;;4.88;;
45792;SDS011;31495;42.740;22.908;2024-02-14T01:16:06;8.88;;;4.65;;
45792;SDS011;31495;42.740;22.908;2024-02-14T01:17:06;7.53;;;5.38;;
45792;SDS011;31495;42.740;22.908;2024-02-14T01:18:06;9.02;;;5.35;;
45792;SDS011;31495;42.740;22.908;2024-02-14T01:19:06;8.13;;;5.60;;
45792;SDS011;31495;42.740;22.908;2024-02-14T01:20:06;8.48;;;5.00;;
45792;SDS011;31495;42.740;22.908;2024-02-14T01:21:08;8.32;;;4.47;;
45792;SDS011;31495;42.740;22.908;2024-02-14T01:22:07;8.10;;;4.47;;
45792;SDS011;31495;42.740;22.908;2024-02-14T01:23:07;6.70;;;4.70;;
45792;SDS011;31495;42.740;22.908;2024-02-14T01:24:07;8.40;;;5.43;;
45792;SDS011;31495;42.740;22.908;2024-02-14T01:25:08;6.72;;;4.18;;
45792;SDS011;31495;42.740;22.908;2024-02-14T01:26:09;8.95;;;4.95;;
45792;SDS011;31495;42.740;22.908;2024-02-14T01:27:09;9.80;;;4.60;;
45792;SDS011;31495;42.740;22.908;2024-02-14T01:28:08;9.13;;;4.97;;
45792;SDS011;31495;42.740;22.908;2024-02-14T01:29:08;8.90;;;5.35;;
45792;SDS011;31495;42.740;22.908;2024-02-14T01:30:08;7.85;;;5.10;;
45792;SDS011;31495;42.740;22.908;2024-02-14T01:31:09;9.05;;;5.10;;
45792;SDS011;31495;42.740;22.908;2024-02-14T01:32:10;8.23;;;4.50;;
45792;SDS011;31495;42.740;22.908;2024-02-14T01:33:10;7.53;;;4.90;;
45792;SDS011;31495;42.740;22.908;2024-02-14T01:34:09;6.45;;;4.35;;
45792;SDS011;31495;42.740;22.908;2024-02-14T01:35:09;6.63;;;3.75;;
45792;SDS011;31495;42.740;22.908;2024-02-14T01:36:08;6.45;;;3.80;;
45792;SDS011;31495;42.740;22.908;2024-02-14T01:37:08;7.13;;;4.35;;
45792;SDS011;31495;42.740;22.908;2024-02-14T01:38:09;8.73;;;5.20;;
45792;SDS011;31495;42.740;22.908;2024-02-14T01:39:08;8.77;;;5.15;;
45792;SDS011;31495;42.740;22.908;2024-02-14T01:40:10;9.80;;;5.63;;
45792;SDS011;31495;42.740;22.908;2024-02-14T01:41:10;8.57;;;4.70;;
45792;SDS011;31495;42.740;22.908;2024-02-14T01:42:09;7.13;;;4.47;;
45792;SDS011;31495;42.740;22.908;2024-02-14T01:43:09;7.50;;;4.68;;
45792;SDS011;31495;42.740;22.908;2024-02-14T01:44:09;8.48;;;5.43;;
45792;SDS011;31495;42.740;22.908;2024-02-14T01:45:09;10.40;;;4.88;;
45792;SDS011;31495;42.740;22.908;2024-02-14T01:46:09;7.18;;;4.53;;
45792;SDS011;31495;42.740;22.908;2024-02-14T01:47:09;8.55;;;4.80;;
45792;SDS011;31495;42.740;22.908;2024-02-14T01:48:09;8.68;;;4.57;;
45792;SDS011;31495;42.740;22.908;2024-02-14T01:49:10;12.50;;;6.43;;
45792;SDS011;31495;42.740;22.908;2024-02-14T01:50:13;6.93;;;4.22;;
45792;SDS011;31495;42.740;22.908;2024-02-14T01:51:13;7.70;;;5.57;;
45792;SDS011;31495;42.740;22.908;2024-02-14T01:52:18;9.25;;;5.10;;
45792;SDS011;31495;42.740;22.908;2024-02-14T01:53:17;6.90;;;4.60;;
45792;SDS011;31495;42.740;22.908;2024-02-14T01:54:17;6.22;;;3.83;;
45792;SDS011;31495;42.740;22.908;2024-02-14T01:55:17;7.43;;;4.88;;
45792;SDS011;31495;42.740;22.908;2024-02-14T01:56:17;8.15;;;4.68;;
45792;SDS011;31495;42.740;22.908;2024-02-14T01:57:16;9.43;;;5.10;;
45792;SDS011;31495;42.740;22.908;2024-02-14T01:58:17;6.65;;;4.57;;
45792;SDS011;31495;42.740;22.908;2024-02-14T01:59:17;8.00;;;4.85;;
45792;SDS011;31495;42.740;22.908;2024-02-14T02:00:17;7.22;;;4.10;;
45792;SDS011;31495;42.740;22.908;2024-02-14T02:01:17;7.65;;;4.72;;
45792;SDS011;31495;42.740;22.908;2024-02-14T02:02:17;9.20;;;4.63;;
45792;SDS011;31495;42.740;22.908;2024-02-14T02:03:16;8.05;;;5.05;;
45792;SDS011;31495;42.740;22.908;2024-02-14T02:04:16;8.50;;;5.10;;
45792;SDS011;31495;42.740;22.908;2024-02-14T02:05:17;8.25;;;4.28;;
45792;SDS011;31495;42.740;22.908;2024-02-14T02:06:17;6.47;;;4.53;;
45792;SDS011;31495;42.740;22.908;2024-02-14T02:07:17;7.75;;;4.47;;
45792;SDS011;31495;42.740;22.908;2024-02-14T02:08:18;8.25;;;5.35;;
45792;SDS011;31495;42.740;22.908;2024-02-14T02:09:18;9.20;;;4.47;;
45792;SDS011;31495;42.740;22.908;2024-02-14T02:10:18;8.50;;;4.72;;
45792;SDS011;31495;42.740;22.908;2024-02-14T02:11:17;11.88;;;5.13;;
45792;SDS011;31495;42.740;22.908;2024-02-14T02:12:18;8.20;;;5.32;;
45792;SDS011;31495;42.740;22.908;2024-02-14T02:13:17;7.53;;;4.55;;
45792;SDS011;31495;42.740;22.908;2024-02-14T02:14:16;7.63;;;4.70;;
45792;SDS011;31495;42.740;22.908;2024-02-14T02:15:16;9.02;;;4.90;;
45792;SDS011;31495;42.740;22.908;2024-02-14T02:16:17;7.35;;;4.18;;
45792;SDS011;31495;42.740;22.908;2024-02-14T02:17:18;6.85;;;4.82;;
45792;SDS011;31495;42.740;22.908;2024-02-14T02:18:18;8.68;;;4.85;;
45792;SDS011;31495;42.740;22.908;2024-02-14T02:19:18;8.27;;;5.07;;
45792;SDS011;31495;42.740;22.908;2024-02-14T02:20:18;7.60;;;4.43;;
45792;SDS011;31495;42.740;22.908;2024-02-14T02:21:18;8.38;;;4.45;;
45792;SDS011;31495;42.740;22.908;2024-02-14T02:22:22;6.22;;;4.13;;
45792;SDS011;31495;42.740;22.908;2024-02-14T02:23:21;9.32;;;4.93;;
45792;SDS011;31495;42.740;22.908;2024-02-14T02:24:21;8.25;;;4.90;;
45792;SDS011;31495;42.740;22.908;2024-02-14T02:25:20;7.50;;;4.68;;
45792;SDS011;31495;42.740;22.908;2024-02-14T02:26:24;9.15;;;5.38;;
45792;SDS011;31495;42.740;22.908;2024-02-14T02:27:24;11.68;;;4.68;;
45792;SDS011;31495;42.740;22.908;2024-02-14T02:28:24;8.43;;;4.72;;
45792;SDS011;31495;42.740;22.908;2024-02-14T02:29:23;7.13;;;4.30;;
45792;SDS011;31495;42.740;22.908;2024-02-14T02:30:22;7.68;;;4.80;;
45792;SDS011;31495;42.740;22.908;2024-02-14T02:31:23;8.43;;;4.70;;
45792;SDS011;31495;42.740;22.908;2024-02-14T02:32:23;6.65;;;4.68;;
45792;SDS011;31495;42.740;22.908;2024-02-14T02:33:22;10.40;;;5.60;;
45792;SDS011;31495;42.740;22.908;2024-02-14T02:34:22;6.82;;;4.35;;
45792;SDS011;31495;42.740;22.908;2024-02-14T02:35:22;7.07;;;4.07;;
45792;SDS011;31495;42.740;22.908;2024-02-14T02:36:24;10.13;;;5.25;;
45792;SDS011;31495;42.740;22.908;2024-02-14T02:37:24;7.82;;;4.63;;
45792;SDS011;31495;42.740;22.908;2024-02-14T02:38:24;7.07;;;3.80;;
45792;SDS011;31495;42.740;22.908;2024-02-14T02:39:23;9.27;;;5.35;;
45792;SDS011;31495;42.740;22.908;2024-02-14T02:40:24;6.97;;;4.35;;
45792;SDS011;31495;42.740;22.908;2024-02-14T02:41:24;7.55;;;4.90;;
45792;SDS011;31495;42.740;22.908;2024-02-14T02:42:24;7.80;;;4.60;;
45792;SDS011;31495;42.740;22.908;2024-02-14T02:43:23;7.57;;;4.80;;
45792;SDS011;31495;42.740;22.908;2024-02-14T02:44:22;9.27;;;4.88;;
45792;SDS011;31495;42.740;22.908;2024-02-14T02:45:22;7.40;;;4.88;;
45792;SDS011;31495;42.740;22.908;2024-02-14T02:46:21;8.23;;;4.75;;
45792;SDS011;31495;42.740;22.908;2024-02-14T02:47:21;9.48;;;5.50;;
45792;SDS011;31495;42.740;22.908;2024-02-14T02:48:21;8.63;;;4.72;;
45792;SDS011;31495;42.740;22.908;2024-02-14T02:49:22;8.88;;;4.97;;
45792;SDS011;31495;42.740;22.908;2024-02-14T02:50:21;9.45;;;4.47;;
45792;SDS011;31495;42.740;22.908;2024-02-14T02:51:20;9.27;;;5.57;;
45792;SDS011;31495;42.740;22.908;2024-02-14T02:52:20;8.52;;;5.30;;
45792;SDS011;31495;42.740;22.908;2024-02-14T02:53:20;9.63;;;5.05;;
45792;SDS011;31495;42.740;22.908;2024-02-14T02:54:20;9.25;;;4.65;;
45792;SDS011;31495;42.740;22.908;2024-02-14T02:55:22;10.52;;;5.25;;
45792;SDS011;31495;42.740;22.908;2024-02-14T02:56:22;8.80;;;5.47;;
45792;SDS011;31495;42.740;22.908;2024-02-14T02:57:26;11.50;;;6.60;;
45792;SDS011;31495;42.740;22.908;2024-02-14T02:58:26;9.50;;;5.53;;
45792;SDS011;31495;42.740;22.908;2024-02-14T02:59:26;10.00;;;5.68;;
45792;SDS011;31495;42.740;22.908;2024-02-14T03:00:28;8.70;;;4.90;;
45792;SDS011;31495;42.740;22.908;2024-02-14T03:01:28;9.38;;;4.90;;
45792;SDS011;31495;42.740;22.908;2024-02-14T03:02:30;8.98;;;4.82;;
45792;SDS011;31495;42.740;22.908;2024-02-14T03:03:30;9.18;;;4.97;;
45792;SDS011;31495;42.740;22.908;2024-02-14T03:04:32;8.02;;;5.20;;
45792;SDS011;31495;42.740;22.908;2024-02-14T03:05:33;9.18;;;4.53;;
45792;SDS011;31495;42.740;22.908;2024-02-14T03:06:35;7.20;;;4.55;;
45792;SDS011;31495;42.740;22.908;2024-02-14T03:07:36;7.70;;;4.43;;
45792;SDS011;31495;42.740;22.908;2024-02-14T03:08:36;9.80;;;5.72;;
45792;SDS011;31495;42.740;22.908;2024-02-14T03:09:37;9.23;;;4.75;;
45792;SDS011;31495;42.740;22.908;2024-02-14T03:10:36;10.80;;;5.35;;
45792;SDS011;31495;42.740;22.908;2024-02-14T03:11:38;10.50;;;6.03;;
45792;SDS011;31495;42.740;22.908;2024-02-14T03:12:37;7.85;;;5.47;;
45792;SDS011;31495;42.740;22.908;2024-02-14T03:13:37;10.70;;;5.50;;
45792;SDS011;31495;42.740;22.908;2024-02-14T03:14:39;9.57;;;5.80;;
45792;SDS011;31495;42.740;22.908;2024-02-14T03:15:40;8.75;;;5.00;;
45792;SDS011;31495;42.740;22.908;2024-02-14T03:16:39;11.48;;;5.43;;
45792;SDS011;31495;42.740;22.908;2024-02-14T03:17:39;8.85;;;5.40;;
45792;SDS011;31495;42.740;22.908;2024-02-14T03:18:38;9.25;;;5.00;;
45792;SDS011;31495;42.740;22.908;2024-02-14T03:19:39;7.20;;;4.75;;
45792;SDS011;31495;42.740;22.908;2024-02-14T03:20:39;10.05;;;5.72;;
45792;SDS011;31495;42.740;22.908;2024-02-14T03:21:39;7.97;;;4.65;;
45792;SDS011;31495;42.740;22.908;2024-02-14T03:22:39;8.60;;;5.28;;
45792;SDS011;31495;42.740;22.908;2024-02-14T03:23:43;8.63;;;5.30;;
45792;SDS011;31495;42.740;22.908;2024-02-14T03:24:45;8.93;;;4.82;;
45792;SDS011;31495;42.740;22.908;2024-02-14T03:25:45;8.73;;;5.53;;
45792;SDS011;31495;42.740;22.908;2024-02-14T03:26:45;7.65;;;5.25;;
45792;SDS011;31495;42.740;22.908;2024-02-14T03:27:45;8.52;;;5.10;;
45792;SDS011;31495;42.740;22.908;2024-02-14T03:28:46;7.10;;;5.13;;
45792;SDS011;31495;42.740;22.908;2024-02-14T03:29:47;9.52;;;5.43;;
45792;SDS011;31495;42.740;22.908;2024-02-14T03:30:47;8.20;;;5.15;;
45792;SDS011;31495;42.740;22.908;2024-02-14T03:31:46;8.93;;;5.30;;
45792;SDS011;31495;42.740;22.908;2024-02-14T03:32:46;9.73;;;4.93;;
45792;SDS011;31495;42.740;22.908;2024-02-14T03:33:45;7.50;;;4.85;;
45792;SDS011;31495;42.740;22.908;2024-02-14T03:34:45;8.95;;;5.15;;
45792;SDS011;31495;42.740;22.908;2024-02-14T03:35:45;8.40;;;5.28;;
45792;SDS011;31495;42.740;22.908;2024-02-14T03:36:45;7.97;;;5.00;;
45792;SDS011;31495;42.740;22.908;2024-02-14T03:37:45;10.88;;;6.15;;
45792;SDS011;31495;42.740;22.908;2024-02-14T03:38:49;9.07;;;4.85;;
45792;SDS011;31495;42.740;22.908;2024-02-14T03:39:49;7.63;;;4.93;;
45792;SDS011;31495;42.740;22.908;2024-02-14T03:40:48;8.77;;;5.13;;
45792;SDS011;31495;42.740;22.908;2024-02-14T03:41:48;9.90;;;6.00;;
45792;SDS011;31495;42.740;22.908;2024-02-14T03:42:47;8.68;;;5.63;;
45792;SDS011;31495;42.740;22.908;2024-02-14T03:43:47;9.70;;;5.63;;
45792;SDS011;31495;42.740;22.908;2024-02-14T03:44:46;9.18;;;5.97;;
45792;SDS011;31495;42.740;22.908;2024-02-14T03:45:46;10.27;;;6.38;;
45792;SDS011;31495;42.740;22.908;2024-02-14T03:46:45;8.10;;;5.45;;
45792;SDS011;31495;42.740;22.908;2024-02-14T03:48:46;9.30;;;5.35;;
45792;SDS011;31495;42.740;22.908;2024-02-14T03:49:46;10.43;;;6.20;;
45792;SDS011;31495;42.740;22.908;2024-02-14T03:50:46;11.13;;;6.30;;
45792;SDS011;31495;42.740;22.908;2024-02-14T03:51:45;10.23;;;6.50;;
45792;SDS011;31495;42.740;22.908;2024-02-14T03:52:45;9.05;;;5.43;;
45792;SDS011;31495;42.740;22.908;2024-02-14T03:53:45;10.80;;;5.72;;
45792;SDS011;31495;42.740;22.908;2024-02-14T03:54:44;10.05;;;5.85;;
45792;SDS011;31495;42.740;22.908;2024-02-14T03:55:44;9.45;;;5.40;;
45792;SDS011;31495;42.740;22.908;2024-02-14T03:56:44;9.20;;;5.32;;
45792;SDS011;31495;42.740;22.908;2024-02-14T03:57:43;9.38;;;6.03;;
45792;SDS011;31495;42.740;22.908;2024-02-14T03:58:46;8.02;;;5.60;;
45792;SDS011;31495;42.740;22.908;2024-02-14T03:59:46;8.95;;;5.72;;
45792;SDS011;31495;42.740;22.908;2024-02-14T04:00:45;10.65;;;6.50;;
45792;SDS011;31495;42.740;22.908;2024-02-14T04:01:47;8.63;;;5.85;;
45792;SDS011;31495;42.740;22.908;2024-02-14T04:02:46;11.95;;;5.93;;
45792;SDS011;31495;42.740;22.908;2024-02-14T04:03:47;8.85;;;5.80;;
45792;SDS011;31495;42.740;22.908;2024-02-14T04:04:47;10.48;;;6.43;;
45792;SDS011;31495;42.740;22.908;2024-02-14T04:05:47;8.88;;;5.63;;
45792;SDS011;31495;42.740;22.908;2024-02-14T04:06:46;12.43;;;6.65;;
45792;SDS011;31495;42.740;22.908;2024-02-14T04:07:46;8.43;;;5.50;;
45792;SDS011;31495;42.740;22.908;2024-02-14T04:08:50;11.27;;;6.68;;
45792;SDS011;31495;42.740;22.908;2024-02-14T04:09:50;9.10;;;5.85;;
45792;SDS011;31495;42.740;22.908;2024-02-14T04:10:49;11.88;;;7.25;;
45792;SDS011;31495;42.740;22.908;2024-02-14T04:11:49;10.25;;;6.65;;
45792;SDS011;31495;42.740;22.908;2024-02-14T04:12:49;12.27;;;7.35;;
45792;SDS011;31495;42.740;22.908;2024-02-14T04:13:49;11.93;;;7.20;;
45792;SDS011;31495;42.740;22.908;2024-02-14T04:14:49;11.40;;;6.03;;
45792;SDS011;31495;42.740;22.908;2024-02-14T04:15:48;10.02;;;6.28;;
45792;SDS011;31495;42.740;22.908;2024-02-14T04:16:48;9.30;;;6.45;;
45792;SDS011;31495;42.740;22.908;2024-02-14T04:17:47;11.65;;;6.03;;
45792;SDS011;31495;42.740;22.908;2024-02-14T04:18:47;11.65;;;6.13;;
45792;SDS011;31495;42.740;22.908;2024-02-14T04:19:46;7.97;;;4.90;;
45792;SDS011;31495;42.740;22.908;2024-02-14T04:20:46;9.02;;;5.45;;
45792;SDS011;31495;42.740;22.908;2024-02-14T04:21:45;9.30;;;5.70;;
45792;SDS011;31495;42.740;22.908;2024-02-14T04:22:46;10.30;;;6.30;;
45792;SDS011;31495;42.740;22.908;2024-02-14T04:23:45;11.93;;;6.63;;
45792;SDS011;31495;42.740;22.908;2024-02-14T04:24:45;10.65;;;6.85;;
45792;SDS011;31495;42.740;22.908;2024-02-14T04:25:44;9.75;;;6.03;;
45792;SDS011;31495;42.740;22.908;2024-02-14T04:26:43;8.75;;;5.30;;
45792;SDS011;31495;42.740;22.908;2024-02-14T04:27:43;11.90;;;6.32;;
45792;SDS011;31495;42.740;22.908;2024-02-14T04:28:42;12.35;;;6.55;;
45792;SDS011;31495;42.740;22.908;2024-02-14T04:29:48;9.23;;;6.32;;
45792;SDS011;31495;42.740;22.908;2024-02-14T04:30:48;10.20;;;6.13;;
45792;SDS011;31495;42.740;22.908;2024-02-14T04:31:47;8.00;;;5.60;;
45792;SDS011;31495;42.740;22.908;2024-02-14T04:32:48;11.95;;;6.85;;
45792;SDS011;31495;42.740;22.908;2024-02-14T04:33:48;10.35;;;6.50;;
45792;SDS011;31495;42.740;22.908;2024-02-14T04:34:50;10.65;;;6.05;;
45792;SDS011;31495;42.740;22.908;2024-02-14T04:35:50;10.00;;;6.63;;
45792;SDS011;31495;42.740;22.908;2024-02-14T04:36:49;10.98;;;6.90;;
45792;SDS011;31495;42.740;22.908;2024-02-14T04:37:49;12.55;;;6.38;;
45792;SDS011;31495;42.740;22.908;2024-02-14T04:38:48;8.20;;;5.00;;
45792;SDS011;31495;42.740;22.908;2024-02-14T04:39:48;10.00;;;6.43;;
45792;SDS011;31495;42.740;22.908;2024-02-14T04:40:47;10.85;;;7.13;;
45792;SDS011;31495;42.740;22.908;2024-02-14T04:41:47;9.93;;;6.75;;
45792;SDS011;31495;42.740;22.908;2024-02-14T04:42:46;11.82;;;6.15;;
45792;SDS011;31495;42.740;22.908;2024-02-14T04:43:46;12.50;;;6.03;;
45792;SDS011;31495;42.740;22.908;2024-02-14T04:44:45;10.55;;;6.43;;
45792;SDS011;31495;42.740;22.908;2024-02-14T04:45:45;11.25;;;6.05;;
45792;SDS011;31495;42.740;22.908;2024-02-14T04:46:44;10.32;;;6.35;;
45792;SDS011;31495;42.740;22.908;2024-02-14T04:47:44;10.15;;;6.65;;
45792;SDS011;31495;42.740;22.908;2024-02-14T04:48:43;10.02;;;6.30;;
45792;SDS011;31495;42.740;22.908;2024-02-14T04:49:43;14.70;;;6.72;;
45792;SDS011;31495;42.740;22.908;2024-02-14T04:50:42;13.63;;;7.55;;
45792;SDS011;31495;42.740;22.908;2024-02-14T04:51:42;12.02;;;7.28;;
45792;SDS011;31495;42.740;22.908;2024-02-14T04:52:42;9.85;;;6.40;;
45792;SDS011;31495;42.740;22.908;2024-02-14T04:53:43;11.00;;;7.10;;
45792;SDS011;31495;42.740;22.908;2024-02-14T04:54:43;11.60;;;6.40;;
45792;SDS011;31495;42.740;22.908;2024-02-14T04:55:43;11.45;;;7.22;;
45792;SDS011;31495;42.740;22.908;2024-02-14T04:56:43;11.13;;;6.10;;
45792;SDS011;31495;42.740;22.908;2024-02-14T04:57:44;11.95;;;7.45;;
45792;SDS011;31495;42.740;22.908;2024-02-14T04:58:43;13.43;;;7.28;;
45792;SDS011;31495;42.740;22.908;2024-02-14T04:59:43;10.75;;;7.10;;
45792;SDS011;31495;42.740;22.908;2024-02-14T05:00:43;13.95;;;8.45;;
45792;SDS011;31495;42.740;22.908;2024-02-14T05:01:43;12.30;;;7.78;;
45792;SDS011;31495;42.740;22.908;2024-02-14T05:02:43;13.93;;;7.88;;
45792;SDS011;31495;42.740;22.908;2024-02-14T05:03:43;10.25;;;6.45;;
45792;SDS011;31495;42.740;22.908;2024-02-14T05:04:46;10.95;;;7.00;;
45792;SDS011;31495;42.740;22.908;2024-02-14T05:05:46;11.43;;;7.30;;
45792;SDS011;31495;42.740;22.908;2024-02-14T05:06:46;11.75;;;7.05;;
45792;SDS011;31495;42.740;22.908;2024-02-14T05:07:45;11.48;;;7.18;;
45792;SDS011;31495;42.740;22.908;2024-02-14T05:08:45;14.23;;;8.80;;
45792;SDS011;31495;42.740;22.908;2024-02-14T05:09:44;10.73;;;7.53;;
45792;SDS011;31495;42.740;22.908;2024-02-14T05:10:44;10.07;;;6.32;;
45792;SDS011;31495;42.740;22.908;2024-02-14T05:11:44;11.00;;;7.50;;
45792;SDS011;31495;42.740;22.908;2024-02-14T05:12:44;13.57;;;7.70;;
45792;SDS011;31495;42.740;22.908;2024-02-14T05:13:44;10.27;;;6.75;;
45792;SDS011;31495;42.740;22.908;2024-02-14T05:14:45;10.23;;;7.13;;
45792;SDS011;31495;42.740;22.908;2024-02-14T05:15:45;11.63;;;7.45;;
45792;SDS011;31495;42.740;22.908;2024-02-14T05:16:45;11.15;;;7.57;;
45792;SDS011;31495;42.740;22.908;2024-02-14T05:17:45;11.45;;;7.55;;
45792;SDS011;31495;42.740;22.908;2024-02-14T05:18:45;11.98;;;7.28;;
45792;SDS011;31495;42.740;22.908;2024-02-14T05:19:45;14.57;;;7.88;;
45792;SDS011;31495;42.740;22.908;2024-02-14T05:20:45;13.75;;;8.00;;
45792;SDS011;31495;42.740;22.908;2024-02-14T05:21:45;15.43;;;8.85;;
45792;SDS011;31495;42.740;22.908;2024-02-14T05:22:47;13.23;;;7.82;;
45792;SDS011;31495;42.740;22.908;2024-02-14T05:23:47;13.02;;;7.32;;
45792;SDS011;31495;42.740;22.908;2024-02-14T05:24:46;12.75;;;7.60;;
45792;SDS011;31495;42.740;22.908;2024-02-14T05:25:46;9.70;;;5.90;;
45792;SDS011;31495;42.740;22.908;2024-02-14T05:26:46;13.68;;;7.38;;
45792;SDS011;31495;42.740;22.908;2024-02-14T05:27:46;11.52;;;7.82;;
45792;SDS011;31495;42.740;22.908;2024-02-14T05:28:46;16.17;;;8.13;;
45792;SDS011;31495;42.740;22.908;2024-02-14T05:29:46;11.60;;;7.22;;
45792;SDS011;31495;42.740;22.908;2024-02-14T05:30:46;14.02;;;7.43;;
45792;SDS011;31495;42.740;22.908;2024-02-14T05:31:46;9.00;;;6.57;;
45792;SDS011;31495;42.740;22.908;2024-02-14T05:32:48;10.63;;;6.80;;
45792;SDS011;31495;42.740;22.908;2024-02-14T05:33:47;18.35;;;9.30;;
45792;SDS011;31495;42.740;22.908;2024-02-14T05:34:46;15.10;;;8.13;;
45792;SDS011;31495;42.740;22.908;2024-02-14T05:35:46;14.52;;;8.80;;
45792;SDS011;31495;42.740;22.908;2024-02-14T05:36:46;12.55;;;8.18;;
45792;SDS011;31495;42.740;22.908;2024-02-14T05:37:46;12.77;;;8.20;;
45792;SDS011;31495;42.740;22.908;2024-02-14T05:38:49;22.20;;;13.32;;
45792;SDS011;31495;42.740;22.908;2024-02-14T05:39:48;13.75;;;9.40;;
45792;SDS011;31495;42.740;22.908;2024-02-14T05:40:48;10.35;;;6.57;;
45792;SDS011;31495;42.740;22.908;2024-02-14T05:41:48;12.43;;;6.07;;
45792;SDS011;31495;42.740;22.908;2024-02-14T05:42:48;11.80;;;6.05;;
45792;SDS011;31495;42.740;22.908;2024-02-14T05:43:47;11.82;;;6.38;;
45792;SDS011;31495;42.740;22.908;2024-02-14T05:44:47;14.05;;;8.10;;
45792;SDS011;31495;42.740;22.908;2024-02-14T05:45:47;9.20;;;5.43;;
45792;SDS011;31495;42.740;22.908;2024-02-14T05:46:47;14.20;;;9.07;;
45792;SDS011;31495;42.740;22.908;2024-02-14T05:47:47;10.00;;;5.95;;
45792;SDS011;31495;42.740;22.908;2024-02-14T05:48:50;13.50;;;7.60;;
45792;SDS011;31495;42.740;22.908;2024-02-14T05:49:51;12.13;;;6.97;;
45792;SDS011;31495;42.740;22.908;2024-02-14T05:50:50;8.02;;;5.00;;
45792;SDS011;31495;42.740;22.908;2024-02-14T05:51:50;9.45;;;5.55;;
45792;SDS011;31495;42.740;22.908;2024-02-14T05:52:52;7.90;;;5.45;;
45792;SDS011;31495;42.740;22.908;2024-02-14T05:53:51;9.23;;;6.40;;
45792;SDS011;31495;42.740;22.908;2024-02-14T05:54:51;11.18;;;6.68;;
45792;SDS011;31495;42.740;22.908;2024-02-14T05:55:50;8.68;;;5.65;;